sensor_id;sensor_type;location;lat;lon;timestamp;P1;durP1;ratioP1;P2;durP2;ratioP2
579;SDS011;276;48.392;9.950;2023-01-30T00:00:56;14.60;;;12.60;;
579;SDS011;276;48.392;9.950;2023-01-30T00:03:29;12.97;;;11.60;;
579;SDS011;276;48.392;9.950;2023-01-30T00:05:54;13.60;;;12.20;;
579;SDS011;276;48.392;9.950;2023-01-30T00:08:20;15.20;;;13.10;;
579;SDS011;276;48.392;9.950;2023-01-30T00:10:46;13.53;;;11.90;;
579;SDS011;276;48.392;9.950;2023-01-30T00:13:13;13.40;;;12.00;;
579;SDS011;276;48.392;9.950;2023-01-30T00:15:43;15.53;;;12.87;;
579;SDS011;276;48.392;9.950;2023-01-30T00:18:11;14.77;;;12.80;;
579;SDS011;276;48.392;9.950;2023-01-30T00:20:37;14.37;;;12.93;;
579;SDS011;276;48.392;9.950;2023-01-30T00:23:03;16.80;;;13.20;;
579;SDS011;276;48.392;9.950;2023-01-30T00:25:31;14.03;;;12.73;;
579;SDS011;276;48.392;9.950;2023-01-30T00:27:59;14.67;;;12.80;;
579;SDS011;276;48.392;9.950;2023-01-30T00:30:30;15.43;;;13.40;;
579;SDS011;276;48.392;9.950;2023-01-30T00:32:56;15.17;;;13.20;;
579;SDS011;276;48.392;9.950;2023-01-30T00:35:23;13.97;;;12.57;;
579;SDS011;276;48.392;9.950;2023-01-30T00:37:52;15.30;;;13.20;;
579;SDS011;276;48.392;9.950;2023-01-30T00:40:19;15.27;;;13.63;;
579;SDS011;276;48.392;9.950;2023-01-30T00:42:45;19.47;;;15.30;;
579;SDS011;276;48.392;9.950;2023-01-30T00:45:29;14.93;;;13.33;;
579;SDS011;276;48.392;9.950;2023-01-30T00:48:13;16.90;;;13.80;;
579;SDS011;276;48.392;9.950;2023-01-30T00:50:41;15.87;;;14.27;;
579;SDS011;276;48.392;9.950;2023-01-30T00:53:10;16.37;;;13.20;;
579;SDS011;276;48.392;9.950;2023-01-30T00:55:37;15.60;;;13.60;;
579;SDS011;276;48.392;9.950;2023-01-30T00:58:03;15.70;;;14.00;;
579;SDS011;276;48.392;9.950;2023-01-30T01:00:31;16.50;;;14.20;;
579;SDS011;276;48.392;9.950;2023-01-30T01:02:57;16.10;;;14.03;;
579;SDS011;276;48.392;9.950;2023-01-30T01:05:23;14.57;;;13.07;;
579;SDS011;276;48.392;9.950;2023-01-30T01:07:51;16.23;;;14.53;;
579;SDS011;276;48.392;9.950;2023-01-30T01:10:17;15.47;;;13.80;;
579;SDS011;276;48.392;9.950;2023-01-30T01:12:43;15.67;;;13.77;;
579;SDS011;276;48.392;9.950;2023-01-30T01:15:10;15.83;;;13.17;;
579;SDS011;276;48.392;9.950;2023-01-30T01:17:37;16.53;;;14.93;;
579;SDS011;276;48.392;9.950;2023-01-30T01:20:03;16.27;;;14.57;;
579;SDS011;276;48.392;9.950;2023-01-30T01:22:30;18.83;;;15.57;;
579;SDS011;276;48.392;9.950;2023-01-30T01:24:56;16.90;;;15.20;;
579;SDS011;276;48.392;9.950;2023-01-30T01:27:24;18.17;;;14.77;;
579;SDS011;276;48.392;9.950;2023-01-30T01:29:49;16.83;;;15.17;;
579;SDS011;276;48.392;9.950;2023-01-30T01:32:19;17.27;;;14.47;;
579;SDS011;276;48.392;9.950;2023-01-30T01:34:45;20.60;;;17.40;;
579;SDS011;276;48.392;9.950;2023-01-30T01:37:11;20.87;;;16.37;;
579;SDS011;276;48.392;9.950;2023-01-30T01:39:37;17.63;;;15.00;;
579;SDS011;276;48.392;9.950;2023-01-30T01:42:21;21.00;;;14.80;;
579;SDS011;276;48.392;9.950;2023-01-30T01:45:03;17.97;;;15.80;;
579;SDS011;276;48.392;9.950;2023-01-30T01:50:19;17.00;;;15.33;;
579;SDS011;276;48.392;9.950;2023-01-30T01:52:49;16.67;;;14.23;;
579;SDS011;276;48.392;9.950;2023-01-30T01:55:20;17.00;;;15.20;;
579;SDS011;276;48.392;9.950;2023-01-30T01:57:52;19.10;;;15.67;;
579;SDS011;276;48.392;9.950;2023-01-30T02:00:26;18.10;;;15.30;;
579;SDS011;276;48.392;9.950;2023-01-30T02:02:56;23.80;;;17.20;;
579;SDS011;276;48.392;9.950;2023-01-30T02:05:24;19.07;;;15.27;;
579;SDS011;276;48.392;9.950;2023-01-30T02:08:03;19.70;;;16.17;;
579;SDS011;276;48.392;9.950;2023-01-30T02:10:39;14.70;;;13.13;;
579;SDS011;276;48.392;9.950;2023-01-30T02:13:15;16.97;;;14.23;;
579;SDS011;276;48.392;9.950;2023-01-30T02:15:42;16.63;;;14.93;;
579;SDS011;276;48.392;9.950;2023-01-30T02:18:11;18.50;;;15.80;;
579;SDS011;276;48.392;9.950;2023-01-30T02:23:44;17.33;;;14.77;;
579;SDS011;276;48.392;9.950;2023-01-30T02:31:46;16.20;;;13.50;;
579;SDS011;276;48.392;9.950;2023-01-30T02:45:35;15.93;;;13.90;;
579;SDS011;276;48.392;9.950;2023-01-30T02:48:16;16.67;;;14.43;;
579;SDS011;276;48.392;9.950;2023-01-30T02:50:54;18.47;;;14.13;;
579;SDS011;276;48.392;9.950;2023-01-30T02:53:25;18.73;;;14.43;;
579;SDS011;276;48.392;9.950;2023-01-30T02:55:56;19.27;;;16.43;;
579;SDS011;276;48.392;9.950;2023-01-30T02:58:22;15.03;;;13.60;;
579;SDS011;276;48.392;9.950;2023-01-30T03:01:03;16.10;;;14.33;;
579;SDS011;276;48.392;9.950;2023-01-30T03:03:53;17.10;;;15.03;;
579;SDS011;276;48.392;9.950;2023-01-30T03:15:04;16.93;;;14.50;;
579;SDS011;276;48.392;9.950;2023-01-30T03:17:38;15.37;;;13.73;;
579;SDS011;276;48.392;9.950;2023-01-30T03:20:12;17.87;;;16.03;;
579;SDS011;276;48.392;9.950;2023-01-30T03:22:39;19.33;;;16.97;;
579;SDS011;276;48.392;9.950;2023-01-30T03:25:04;19.43;;;16.07;;
579;SDS011;276;48.392;9.950;2023-01-30T03:27:31;24.03;;;18.10;;
579;SDS011;276;48.392;9.950;2023-01-30T03:30:00;15.97;;;13.83;;
579;SDS011;276;48.392;9.950;2023-01-30T03:32:26;17.80;;;15.57;;
579;SDS011;276;48.392;9.950;2023-01-30T03:34:51;17.63;;;15.73;;
579;SDS011;276;48.392;9.950;2023-01-30T03:37:20;17.17;;;15.37;;
579;SDS011;276;48.392;9.950;2023-01-30T03:39:45;19.33;;;14.23;;
579;SDS011;276;48.392;9.950;2023-01-30T03:42:11;19.97;;;16.13;;
579;SDS011;276;48.392;9.950;2023-01-30T03:44:36;19.60;;;14.87;;
579;SDS011;276;48.392;9.950;2023-01-30T03:47:02;18.63;;;15.43;;
579;SDS011;276;48.392;9.950;2023-01-30T03:49:27;18.47;;;16.50;;
579;SDS011;276;48.392;9.950;2023-01-30T03:51:57;19.80;;;16.90;;
579;SDS011;276;48.392;9.950;2023-01-30T03:54:26;17.23;;;15.40;;
579;SDS011;276;48.392;9.950;2023-01-30T03:56:52;18.70;;;15.90;;
579;SDS011;276;48.392;9.950;2023-01-30T03:59:17;16.60;;;14.80;;
579;SDS011;276;48.392;9.950;2023-01-30T04:01:43;18.97;;;15.53;;
579;SDS011;276;48.392;9.950;2023-01-30T04:04:13;16.63;;;14.93;;
579;SDS011;276;48.392;9.950;2023-01-30T04:06:41;18.00;;;14.37;;
579;SDS011;276;48.392;9.950;2023-01-30T04:09:07;18.70;;;16.27;;
579;SDS011;276;48.392;9.950;2023-01-30T04:11:32;19.50;;;16.50;;
579;SDS011;276;48.392;9.950;2023-01-30T04:13:58;21.40;;;17.00;;
579;SDS011;276;48.392;9.950;2023-01-30T04:16:26;19.90;;;16.70;;
579;SDS011;276;48.392;9.950;2023-01-30T04:18:54;19.83;;;16.67;;
579;SDS011;276;48.392;9.950;2023-01-30T04:21:19;19.10;;;16.40;;
579;SDS011;276;48.392;9.950;2023-01-30T04:23:45;19.50;;;14.53;;
579;SDS011;276;48.392;9.950;2023-01-30T04:26:11;19.10;;;15.00;;
579;SDS011;276;48.392;9.950;2023-01-30T04:28:38;17.80;;;15.90;;
579;SDS011;276;48.392;9.950;2023-01-30T04:31:04;17.70;;;15.90;;
579;SDS011;276;48.392;9.950;2023-01-30T04:33:32;22.97;;;17.80;;
579;SDS011;276;48.392;9.950;2023-01-30T04:35:59;19.40;;;17.37;;
579;SDS011;276;48.392;9.950;2023-01-30T04:38:26;22.40;;;17.90;;
579;SDS011;276;48.392;9.950;2023-01-30T04:40:53;20.67;;;16.50;;
579;SDS011;276;48.392;9.950;2023-01-30T04:43:20;20.00;;;16.73;;
579;SDS011;276;48.392;9.950;2023-01-30T04:45:47;18.67;;;16.67;;
579;SDS011;276;48.392;9.950;2023-01-30T04:48:14;22.97;;;18.57;;
579;SDS011;276;48.392;9.950;2023-01-30T04:50:41;22.10;;;17.27;;
579;SDS011;276;48.392;9.950;2023-01-30T04:53:10;22.13;;;18.80;;
579;SDS011;276;48.392;9.950;2023-01-30T04:55:36;25.27;;;19.83;;
579;SDS011;276;48.392;9.950;2023-01-30T04:58:01;22.73;;;17.23;;
579;SDS011;276;48.392;9.950;2023-01-30T05:00:27;22.57;;;18.17;;
579;SDS011;276;48.392;9.950;2023-01-30T05:02:53;24.30;;;20.20;;
579;SDS011;276;48.392;9.950;2023-01-30T05:05:22;21.17;;;17.27;;
579;SDS011;276;48.392;9.950;2023-01-30T05:07:50;23.67;;;19.40;;
579;SDS011;276;48.392;9.950;2023-01-30T05:10:16;23.53;;;19.57;;
579;SDS011;276;48.392;9.950;2023-01-30T05:12:44;22.97;;;19.10;;
579;SDS011;276;48.392;9.950;2023-01-30T05:15:11;22.13;;;18.87;;
579;SDS011;276;48.392;9.950;2023-01-30T05:17:41;21.80;;;19.13;;
579;SDS011;276;48.392;9.950;2023-01-30T05:20:08;22.10;;;19.57;;
579;SDS011;276;48.392;9.950;2023-01-30T05:22:37;23.60;;;18.70;;
579;SDS011;276;48.392;9.950;2023-01-30T05:25:03;28.20;;;18.73;;
579;SDS011;276;48.392;9.950;2023-01-30T05:27:33;24.57;;;19.30;;
579;SDS011;276;48.392;9.950;2023-01-30T05:29:59;24.40;;;18.60;;
579;SDS011;276;48.392;9.950;2023-01-30T05:32:29;21.03;;;18.37;;
579;SDS011;276;48.392;9.950;2023-01-30T05:34:55;24.10;;;18.70;;
579;SDS011;276;48.392;9.950;2023-01-30T05:37:24;23.87;;;18.10;;
579;SDS011;276;48.392;9.950;2023-01-30T05:39:51;19.60;;;17.47;;
579;SDS011;276;48.392;9.950;2023-01-30T05:42:22;22.73;;;17.93;;
579;SDS011;276;48.392;9.950;2023-01-30T05:44:47;20.07;;;16.53;;
579;SDS011;276;48.392;9.950;2023-01-30T05:47:13;22.50;;;18.33;;
579;SDS011;276;48.392;9.950;2023-01-30T05:49:40;19.07;;;17.00;;
579;SDS011;276;48.392;9.950;2023-01-30T05:52:06;22.50;;;18.87;;
579;SDS011;276;48.392;9.950;2023-01-30T05:54:32;21.03;;;16.70;;
579;SDS011;276;48.392;9.950;2023-01-30T05:56:59;24.03;;;18.73;;
579;SDS011;276;48.392;9.950;2023-01-30T05:59:27;23.33;;;19.40;;
579;SDS011;276;48.392;9.950;2023-01-30T06:01:52;24.27;;;19.37;;
579;SDS011;276;48.392;9.950;2023-01-30T06:04:20;20.70;;;17.03;;
579;SDS011;276;48.392;9.950;2023-01-30T06:06:47;19.17;;;16.90;;
579;SDS011;276;48.392;9.950;2023-01-30T06:09:17;21.87;;;18.93;;
579;SDS011;276;48.392;9.950;2023-01-30T06:11:42;22.90;;;18.30;;
579;SDS011;276;48.392;9.950;2023-01-30T06:14:08;21.30;;;18.53;;
579;SDS011;276;48.392;9.950;2023-01-30T06:16:33;21.77;;;18.20;;
579;SDS011;276;48.392;9.950;2023-01-30T06:18:59;25.83;;;19.97;;
579;SDS011;276;48.392;9.950;2023-01-30T06:21:25;23.03;;;17.77;;
579;SDS011;276;48.392;9.950;2023-01-30T06:23:50;25.83;;;20.17;;
579;SDS011;276;48.392;9.950;2023-01-30T06:26:18;23.93;;;17.10;;
579;SDS011;276;48.392;9.950;2023-01-30T06:28:44;24.97;;;18.40;;
579;SDS011;276;48.392;9.950;2023-01-30T06:31:09;22.13;;;18.00;;
579;SDS011;276;48.392;9.950;2023-01-30T06:33:35;20.50;;;17.40;;
579;SDS011;276;48.392;9.950;2023-01-30T06:36:01;17.40;;;14.27;;
579;SDS011;276;48.392;9.950;2023-01-30T06:38:26;20.80;;;17.70;;
579;SDS011;276;48.392;9.950;2023-01-30T06:40:54;19.53;;;16.83;;
579;SDS011;276;48.392;9.950;2023-01-30T06:43:20;21.87;;;18.23;;
579;SDS011;276;48.392;9.950;2023-01-30T06:45:48;20.97;;;17.67;;
579;SDS011;276;48.392;9.950;2023-01-30T06:48:13;21.80;;;17.43;;
579;SDS011;276;48.392;9.950;2023-01-30T06:50:41;20.70;;;16.27;;
579;SDS011;276;48.392;9.950;2023-01-30T06:53:07;19.50;;;16.07;;
579;SDS011;276;48.392;9.950;2023-01-30T06:55:35;20.97;;;16.60;;
579;SDS011;276;48.392;9.950;2023-01-30T06:58:08;17.73;;;15.87;;
579;SDS011;276;48.392;9.950;2023-01-30T07:00:38;18.70;;;15.90;;
579;SDS011;276;48.392;9.950;2023-01-30T07:03:10;18.30;;;16.30;;
579;SDS011;276;48.392;9.950;2023-01-30T07:05:38;18.50;;;15.90;;
579;SDS011;276;48.392;9.950;2023-01-30T07:08:05;19.97;;;16.63;;
579;SDS011;276;48.392;9.950;2023-01-30T07:10:31;23.83;;;18.07;;
579;SDS011;276;48.392;9.950;2023-01-30T07:12:57;20.97;;;17.30;;
579;SDS011;276;48.392;9.950;2023-01-30T07:15:23;20.80;;;17.00;;
579;SDS011;276;48.392;9.950;2023-01-30T07:17:50;20.37;;;16.87;;
579;SDS011;276;48.392;9.950;2023-01-30T07:20:15;19.63;;;17.10;;
579;SDS011;276;48.392;9.950;2023-01-30T07:22:41;18.80;;;15.50;;
579;SDS011;276;48.392;9.950;2023-01-30T07:25:07;19.40;;;16.60;;
579;SDS011;276;48.392;9.950;2023-01-30T07:27:37;16.10;;;13.90;;
579;SDS011;276;48.392;9.950;2023-01-30T07:30:05;19.97;;;15.77;;
579;SDS011;276;48.392;9.950;2023-01-30T07:32:31;16.90;;;15.10;;
579;SDS011;276;48.392;9.950;2023-01-30T07:34:59;18.97;;;15.77;;
579;SDS011;276;48.392;9.950;2023-01-30T07:37:24;18.80;;;16.10;;
579;SDS011;276;48.392;9.950;2023-01-30T07:39:52;18.27;;;16.07;;
579;SDS011;276;48.392;9.950;2023-01-30T07:42:17;18.73;;;15.77;;
579;SDS011;276;48.392;9.950;2023-01-30T07:44:48;19.60;;;16.00;;
579;SDS011;276;48.392;9.950;2023-01-30T07:47:16;20.07;;;15.70;;
579;SDS011;276;48.392;9.950;2023-01-30T07:49:44;20.80;;;16.27;;
579;SDS011;276;48.392;9.950;2023-01-30T07:52:09;20.20;;;16.93;;
579;SDS011;276;48.392;9.950;2023-01-30T07:54:35;19.83;;;16.33;;
579;SDS011;276;48.392;9.950;2023-01-30T07:57:01;17.47;;;14.97;;
579;SDS011;276;48.392;9.950;2023-01-30T07:59:26;19.80;;;16.77;;
579;SDS011;276;48.392;9.950;2023-01-30T08:01:54;17.70;;;14.13;;
579;SDS011;276;48.392;9.950;2023-01-30T08:04:22;19.30;;;16.73;;
579;SDS011;276;48.392;9.950;2023-01-30T08:06:48;18.80;;;16.80;;
579;SDS011;276;48.392;9.950;2023-01-30T08:09:21;19.73;;;15.57;;
579;SDS011;276;48.392;9.950;2023-01-30T08:11:51;14.93;;;13.37;;
579;SDS011;276;48.392;9.950;2023-01-30T08:14:19;16.93;;;14.53;;
579;SDS011;276;48.392;9.950;2023-01-30T08:16:45;18.60;;;15.23;;
579;SDS011;276;48.392;9.950;2023-01-30T08:19:10;15.70;;;13.63;;
579;SDS011;276;48.392;9.950;2023-01-30T08:21:36;15.10;;;13.20;;
579;SDS011;276;48.392;9.950;2023-01-30T08:24:01;15.53;;;13.03;;
579;SDS011;276;48.392;9.950;2023-01-30T08:26:29;14.30;;;11.90;;
579;SDS011;276;48.392;9.950;2023-01-30T08:28:57;17.23;;;13.10;;
579;SDS011;276;48.392;9.950;2023-01-30T08:31:23;21.37;;;15.10;;
579;SDS011;276;48.392;9.950;2023-01-30T08:33:48;16.77;;;13.70;;
579;SDS011;276;48.392;9.950;2023-01-30T08:36:14;16.57;;;13.60;;
579;SDS011;276;48.392;9.950;2023-01-30T08:38:42;13.67;;;12.17;;
579;SDS011;276;48.392;9.950;2023-01-30T08:41:08;13.87;;;12.00;;
579;SDS011;276;48.392;9.950;2023-01-30T08:43:35;14.80;;;12.57;;
579;SDS011;276;48.392;9.950;2023-01-30T08:46:01;15.57;;;12.83;;
579;SDS011;276;48.392;9.950;2023-01-30T08:48:27;16.20;;;13.50;;
579;SDS011;276;48.392;9.950;2023-01-30T08:50:53;13.70;;;11.63;;
579;SDS011;276;48.392;9.950;2023-01-30T08:53:21;16.73;;;13.67;;
579;SDS011;276;48.392;9.950;2023-01-30T08:55:50;14.00;;;12.50;;
579;SDS011;276;48.392;9.950;2023-01-30T08:58:17;15.67;;;12.90;;
579;SDS011;276;48.392;9.950;2023-01-30T09:00:49;14.97;;;13.37;;
579;SDS011;276;48.392;9.950;2023-01-30T09:03:15;15.17;;;13.63;;
579;SDS011;276;48.392;9.950;2023-01-30T09:05:42;15.37;;;12.70;;
579;SDS011;276;48.392;9.950;2023-01-30T09:08:10;16.93;;;13.73;;
579;SDS011;276;48.392;9.950;2023-01-30T09:10:39;12.37;;;10.90;;
579;SDS011;276;48.392;9.950;2023-01-30T09:13:06;13.40;;;12.00;;
579;SDS011;276;48.392;9.950;2023-01-30T09:15:33;15.43;;;12.30;;
579;SDS011;276;48.392;9.950;2023-01-30T09:18:01;13.83;;;11.47;;
579;SDS011;276;48.392;9.950;2023-01-30T09:20:27;13.90;;;12.50;;
579;SDS011;276;48.392;9.950;2023-01-30T09:22:52;15.00;;;13.07;;
579;SDS011;276;48.392;9.950;2023-01-30T09:25:18;12.87;;;11.50;;
579;SDS011;276;48.392;9.950;2023-01-30T09:27:46;13.93;;;12.37;;
579;SDS011;276;48.392;9.950;2023-01-30T09:30:13;15.97;;;12.90;;
579;SDS011;276;48.392;9.950;2023-01-30T09:32:38;14.47;;;12.37;;
579;SDS011;276;48.392;9.950;2023-01-30T09:35:07;12.70;;;11.27;;
579;SDS011;276;48.392;9.950;2023-01-30T09:37:32;14.13;;;11.40;;
579;SDS011;276;48.392;9.950;2023-01-30T09:39:58;12.97;;;11.57;;
579;SDS011;276;48.392;9.950;2023-01-30T09:53:00;12.00;;;10.80;;
579;SDS011;276;48.392;9.950;2023-01-30T09:55:32;13.03;;;11.53;;
579;SDS011;276;48.392;9.950;2023-01-30T09:58:01;12.77;;;11.37;;
579;SDS011;276;48.392;9.950;2023-01-30T10:00:37;11.40;;;10.30;;
579;SDS011;276;48.392;9.950;2023-01-30T10:03:10;13.20;;;11.03;;
579;SDS011;276;48.392;9.950;2023-01-30T10:21:46;11.00;;;9.90;;
579;SDS011;276;48.392;9.950;2023-01-30T10:27:03;11.23;;;10.13;;
579;SDS011;276;48.392;9.950;2023-01-30T10:29:40;12.53;;;10.70;;
579;SDS011;276;48.392;9.950;2023-01-30T10:34:58;12.57;;;9.73;;
579;SDS011;276;48.392;9.950;2023-01-30T10:37:31;11.70;;;10.53;;
579;SDS011;276;48.392;9.950;2023-01-30T10:42:49;11.90;;;10.67;;
579;SDS011;276;48.392;9.950;2023-01-30T10:45:18;11.70;;;10.47;;
579;SDS011;276;48.392;9.950;2023-01-30T10:50:35;13.60;;;12.20;;
579;SDS011;276;48.392;9.950;2023-01-30T10:53:44;15.30;;;12.63;;
579;SDS011;276;48.392;9.950;2023-01-30T10:56:23;12.73;;;11.33;;
579;SDS011;276;48.392;9.950;2023-01-30T11:01:50;11.93;;;10.63;;
579;SDS011;276;48.392;9.950;2023-01-30T11:07:01;12.97;;;10.87;;
579;SDS011;276;48.392;9.950;2023-01-30T11:09:41;11.73;;;10.53;;
579;SDS011;276;48.392;9.950;2023-01-30T11:12:09;13.77;;;11.80;;
579;SDS011;276;48.392;9.950;2023-01-30T11:17:43;11.80;;;10.60;;
579;SDS011;276;48.392;9.950;2023-01-30T11:20:18;14.37;;;11.70;;
579;SDS011;276;48.392;9.950;2023-01-30T11:23:05;11.63;;;10.43;;
579;SDS011;276;48.392;9.950;2023-01-30T11:25:45;11.43;;;10.33;;
579;SDS011;276;48.392;9.950;2023-01-30T11:28:15;12.97;;;11.33;;
579;SDS011;276;48.392;9.950;2023-01-30T11:30:41;11.83;;;10.60;;
579;SDS011;276;48.392;9.950;2023-01-30T11:33:14;13.23;;;11.43;;
579;SDS011;276;48.392;9.950;2023-01-30T11:35:53;11.50;;;10.17;;
579;SDS011;276;48.392;9.950;2023-01-30T11:40:50;12.87;;;10.57;;
579;SDS011;276;48.392;9.950;2023-01-30T11:43:28;13.90;;;12.00;;
579;SDS011;276;48.392;9.950;2023-01-30T11:45:56;11.80;;;10.60;;
579;SDS011;276;48.392;9.950;2023-01-30T11:48:25;13.20;;;11.40;;
579;SDS011;276;48.392;9.950;2023-01-30T11:50:57;13.10;;;11.73;;
579;SDS011;276;48.392;9.950;2023-01-30T11:56:54;14.30;;;12.83;;
579;SDS011;276;48.392;9.950;2023-01-30T11:58:58;14.47;;;11.97;;
579;SDS011;276;48.392;9.950;2023-01-30T12:01:31;11.87;;;10.50;;
579;SDS011;276;48.392;9.950;2023-01-30T12:03:59;11.80;;;10.60;;
579;SDS011;276;48.392;9.950;2023-01-30T12:06:30;15.63;;;10.87;;
579;SDS011;276;48.392;9.950;2023-01-30T12:08:59;12.37;;;11.07;;
579;SDS011;276;48.392;9.950;2023-01-30T12:14:17;12.40;;;10.63;;
579;SDS011;276;48.392;9.950;2023-01-30T12:17:19;14.00;;;12.57;;
579;SDS011;276;48.392;9.950;2023-01-30T12:20:10;12.93;;;11.63;;
579;SDS011;276;48.392;9.950;2023-01-30T12:25:24;12.87;;;11.57;;
579;SDS011;276;48.392;9.950;2023-01-30T12:31:07;12.67;;;11.40;;
579;SDS011;276;48.392;9.950;2023-01-30T12:33:45;13.23;;;11.80;;
579;SDS011;276;48.392;9.950;2023-01-30T12:36:23;13.80;;;12.37;;
579;SDS011;276;48.392;9.950;2023-01-30T12:39:12;16.40;;;13.50;;
579;SDS011;276;48.392;9.950;2023-01-30T12:45:30;12.43;;;11.07;;
579;SDS011;276;48.392;9.950;2023-01-30T12:53:43;14.33;;;12.70;;
579;SDS011;276;48.392;9.950;2023-01-30T12:59:19;13.60;;;11.93;;
579;SDS011;276;48.392;9.950;2023-01-30T13:10:29;13.77;;;12.30;;
579;SDS011;276;48.392;9.950;2023-01-30T13:13:20;14.60;;;11.20;;
579;SDS011;276;48.392;9.950;2023-01-30T13:18:24;13.43;;;12.03;;
579;SDS011;276;48.392;9.950;2023-01-30T13:21:07;12.10;;;10.77;;
579;SDS011;276;48.392;9.950;2023-01-30T13:23:59;13.50;;;12.10;;
579;SDS011;276;48.392;9.950;2023-01-30T13:26:29;16.43;;;14.40;;
579;SDS011;276;48.392;9.950;2023-01-30T13:29:19;14.03;;;12.23;;
579;SDS011;276;48.392;9.950;2023-01-30T13:31:58;14.27;;;12.80;;
579;SDS011;276;48.392;9.950;2023-01-30T13:37:04;15.37;;;13.87;;
579;SDS011;276;48.392;9.950;2023-01-30T13:45:01;15.73;;;12.33;;
579;SDS011;276;48.392;9.950;2023-01-30T13:50:13;12.87;;;11.47;;
579;SDS011;276;48.392;9.950;2023-01-30T13:52:50;15.13;;;12.90;;
579;SDS011;276;48.392;9.950;2023-01-30T14:01:08;13.87;;;12.27;;
579;SDS011;276;48.392;9.950;2023-01-30T14:03:36;13.13;;;11.73;;
579;SDS011;276;48.392;9.950;2023-01-30T14:06:05;14.23;;;12.73;;
579;SDS011;276;48.392;9.950;2023-01-30T14:08:39;14.40;;;12.50;;
579;SDS011;276;48.392;9.950;2023-01-30T14:13:59;13.97;;;12.57;;
579;SDS011;276;48.392;9.950;2023-01-30T14:22:20;12.80;;;11.10;;
579;SDS011;276;48.392;9.950;2023-01-30T14:35:44;15.70;;;12.77;;
579;SDS011;276;48.392;9.950;2023-01-30T14:38:30;15.63;;;13.23;;
579;SDS011;276;48.392;9.950;2023-01-30T14:46:04;13.30;;;11.90;;
579;SDS011;276;48.392;9.950;2023-01-30T14:51:35;17.63;;;11.77;;
579;SDS011;276;48.392;9.950;2023-01-30T15:07:26;13.07;;;11.87;;
579;SDS011;276;48.392;9.950;2023-01-30T15:15:41;13.77;;;11.60;;
579;SDS011;276;48.392;9.950;2023-01-30T15:32:01;13.80;;;12.07;;
579;SDS011;276;48.392;9.950;2023-01-30T15:34:53;12.63;;;11.03;;
579;SDS011;276;48.392;9.950;2023-01-30T15:37:30;12.73;;;11.43;;
579;SDS011;276;48.392;9.950;2023-01-30T15:50:59;14.50;;;11.20;;
579;SDS011;276;48.392;9.950;2023-01-30T15:53:34;14.37;;;12.83;;
579;SDS011;276;48.392;9.950;2023-01-30T15:56:09;14.93;;;11.57;;
579;SDS011;276;48.392;9.950;2023-01-30T15:58:41;12.37;;;11.10;;
579;SDS011;276;48.392;9.950;2023-01-30T16:01:11;12.67;;;11.37;;
579;SDS011;276;48.392;9.950;2023-01-30T16:03:50;14.53;;;12.00;;
579;SDS011;276;48.392;9.950;2023-01-30T16:06:27;11.73;;;10.53;;
579;SDS011;276;48.392;9.950;2023-01-30T16:09:00;12.30;;;10.53;;
579;SDS011;276;48.392;9.950;2023-01-30T16:11:39;11.43;;;10.37;;
579;SDS011;276;48.392;9.950;2023-01-30T16:14:12;14.33;;;11.30;;
579;SDS011;276;48.392;9.950;2023-01-30T16:16:57;13.60;;;12.10;;
579;SDS011;276;48.392;9.950;2023-01-30T16:22:03;11.50;;;10.00;;
579;SDS011;276;48.392;9.950;2023-01-30T16:24:42;12.17;;;10.87;;
579;SDS011;276;48.392;9.950;2023-01-30T16:27:16;11.83;;;10.70;;
579;SDS011;276;48.392;9.950;2023-01-30T16:29:50;11.93;;;10.60;;
579;SDS011;276;48.392;9.950;2023-01-30T16:32:23;10.10;;;9.10;;
579;SDS011;276;48.392;9.950;2023-01-30T16:35:13;12.27;;;11.07;;
579;SDS011;276;48.392;9.950;2023-01-30T16:37:55;13.93;;;11.00;;
579;SDS011;276;48.392;9.950;2023-01-30T16:40:26;10.60;;;9.60;;
579;SDS011;276;48.392;9.950;2023-01-30T16:43:01;11.50;;;10.40;;
579;SDS011;276;48.392;9.950;2023-01-30T16:48:35;14.83;;;10.77;;
579;SDS011;276;48.392;9.950;2023-01-30T16:53:44;11.67;;;10.33;;
579;SDS011;276;48.392;9.950;2023-01-30T16:56:31;11.57;;;10.43;;
579;SDS011;276;48.392;9.950;2023-01-30T16:58:59;11.10;;;9.97;;
579;SDS011;276;48.392;9.950;2023-01-30T17:01:35;10.27;;;9.17;;
579;SDS011;276;48.392;9.950;2023-01-30T17:04:07;12.23;;;9.67;;
579;SDS011;276;48.392;9.950;2023-01-30T17:06:42;9.43;;;8.53;;
579;SDS011;276;48.392;9.950;2023-01-30T17:14:51;10.07;;;9.07;;
579;SDS011;276;48.392;9.950;2023-01-30T17:17:38;9.17;;;8.20;;
579;SDS011;276;48.392;9.950;2023-01-30T17:20:08;9.50;;;8.60;;
579;SDS011;276;48.392;9.950;2023-01-30T17:22:37;12.70;;;10.17;;
579;SDS011;276;48.392;9.950;2023-01-30T17:25:06;10.83;;;9.10;;
579;SDS011;276;48.392;9.950;2023-01-30T17:27:42;11.20;;;9.40;;
579;SDS011;276;48.392;9.950;2023-01-30T17:30:12;10.23;;;8.67;;
579;SDS011;276;48.392;9.950;2023-01-30T17:32:40;9.80;;;8.70;;
579;SDS011;276;48.392;9.950;2023-01-30T17:35:10;10.70;;;9.60;;
579;SDS011;276;48.392;9.950;2023-01-30T17:37:36;10.87;;;9.77;;
579;SDS011;276;48.392;9.950;2023-01-30T17:40:05;10.67;;;9.57;;
579;SDS011;276;48.392;9.950;2023-01-30T17:42:40;10.60;;;9.53;;
579;SDS011;276;48.392;9.950;2023-01-30T17:45:08;11.67;;;10.53;;
579;SDS011;276;48.392;9.950;2023-01-30T17:47:37;10.50;;;8.97;;
579;SDS011;276;48.392;9.950;2023-01-30T17:50:05;13.57;;;11.33;;
579;SDS011;276;48.392;9.950;2023-01-30T17:52:35;11.70;;;10.33;;
579;SDS011;276;48.392;9.950;2023-01-30T17:55:06;11.87;;;9.73;;
579;SDS011;276;48.392;9.950;2023-01-30T17:57:45;10.10;;;9.10;;
579;SDS011;276;48.392;9.950;2023-01-30T18:00:18;10.03;;;8.80;;
579;SDS011;276;48.392;9.950;2023-01-30T18:02:47;11.80;;;10.60;;
579;SDS011;276;48.392;9.950;2023-01-30T18:05:12;11.00;;;8.87;;
579;SDS011;276;48.392;9.950;2023-01-30T18:07:40;8.83;;;7.93;;
579;SDS011;276;48.392;9.950;2023-01-30T18:10:15;9.13;;;8.30;;
579;SDS011;276;48.392;9.950;2023-01-30T18:12:46;8.30;;;7.50;;
579;SDS011;276;48.392;9.950;2023-01-30T18:15:14;8.63;;;7.57;;
579;SDS011;276;48.392;9.950;2023-01-30T18:17:43;8.17;;;7.33;;
579;SDS011;276;48.392;9.950;2023-01-30T18:20:16;7.33;;;6.63;;
579;SDS011;276;48.392;9.950;2023-01-30T18:22:43;7.70;;;6.30;;
579;SDS011;276;48.392;9.950;2023-01-30T18:25:09;8.37;;;7.20;;
579;SDS011;276;48.392;9.950;2023-01-30T18:27:40;5.90;;;5.27;;
579;SDS011;276;48.392;9.950;2023-01-30T18:30:11;6.43;;;5.80;;
579;SDS011;276;48.392;9.950;2023-01-30T18:32:41;7.70;;;6.67;;
579;SDS011;276;48.392;9.950;2023-01-30T18:35:09;9.50;;;6.83;;
579;SDS011;276;48.392;9.950;2023-01-30T18:37:38;6.70;;;6.00;;
579;SDS011;276;48.392;9.950;2023-01-30T18:40:09;9.07;;;7.23;;
579;SDS011;276;48.392;9.950;2023-01-30T18:42:39;8.13;;;7.50;;
579;SDS011;276;48.392;9.950;2023-01-30T18:45:08;8.40;;;6.70;;
579;SDS011;276;48.392;9.950;2023-01-30T18:47:36;6.70;;;6.10;;
579;SDS011;276;48.392;9.950;2023-01-30T18:50:04;9.00;;;5.73;;
579;SDS011;276;48.392;9.950;2023-01-30T18:52:30;6.17;;;5.60;;
579;SDS011;276;48.392;9.950;2023-01-30T18:54:56;8.17;;;5.90;;
579;SDS011;276;48.392;9.950;2023-01-30T18:57:23;6.33;;;5.77;;
579;SDS011;276;48.392;9.950;2023-01-30T18:59:52;7.80;;;7.00;;
579;SDS011;276;48.392;9.950;2023-01-30T19:02:19;7.13;;;6.13;;
579;SDS011;276;48.392;9.950;2023-01-30T19:04:47;5.67;;;5.17;;
579;SDS011;276;48.392;9.950;2023-01-30T19:07:15;5.83;;;5.33;;
579;SDS011;276;48.392;9.950;2023-01-30T19:09:41;6.27;;;5.20;;
579;SDS011;276;48.392;9.950;2023-01-30T19:12:07;6.70;;;6.17;;
579;SDS011;276;48.392;9.950;2023-01-30T19:14:51;5.70;;;5.30;;